sensor_id;sensor_type;location;lat;lon;timestamp;P1;durP1;ratioP1;P2;durP2;ratioP2
7233;SDS011;3658;47.992;10.158;2023-04-07T00:01:12;1.30;;;1.20;;
7233;SDS011;3658;47.992;10.158;2023-04-07T00:03:39;1.20;;;1.10;;
7233;SDS011;3658;47.992;10.158;2023-04-07T00:06:07;1.30;;;1.20;;
7233;SDS011;3658;47.992;10.158;2023-04-07T00:08:36;1.20;;;1.10;;
7233;SDS011;3658;47.992;10.158;2023-04-07T00:11:03;1.47;;;1.20;;
7233;SDS011;3658;47.992;10.158;2023-04-07T00:13:30;1.47;;;1.37;;
7233;SDS011;3658;47.992;10.158;2023-04-07T00:15:57;1.33;;;1.20;;
7233;SDS011;3658;47.992;10.158;2023-04-07T00:18:24;1.30;;;1.20;;
7233;SDS011;3658;47.992;10.158;2023-04-07T00:20:51;1.27;;;1.17;;
7233;SDS011;3658;47.992;10.158;2023-04-07T00:23:18;1.23;;;1.13;;
7233;SDS011;3658;47.992;10.158;2023-04-07T00:25:48;1.87;;;1.10;;
7233;SDS011;3658;47.992;10.158;2023-04-07T00:28:15;1.30;;;1.20;;
7233;SDS011;3658;47.992;10.158;2023-04-07T00:30:41;1.37;;;1.27;;
7233;SDS011;3658;47.992;10.158;2023-04-07T00:33:08;1.37;;;1.27;;
7233;SDS011;3658;47.992;10.158;2023-04-07T00:35:35;1.30;;;1.20;;
7233;SDS011;3658;47.992;10.158;2023-04-07T00:38:02;1.20;;;1.10;;
7233;SDS011;3658;47.992;10.158;2023-04-07T00:40:29;1.23;;;1.00;;
7233;SDS011;3658;47.992;10.158;2023-04-07T00:42:58;1.37;;;1.10;;
7233;SDS011;3658;47.992;10.158;2023-04-07T00:45:24;1.57;;;1.47;;
7233;SDS011;3658;47.992;10.158;2023-04-07T00:47:52;1.20;;;1.10;;
7233;SDS011;3658;47.992;10.158;2023-04-07T00:50:19;1.20;;;1.10;;
7233;SDS011;3658;47.992;10.158;2023-04-07T00:52:46;1.10;;;1.00;;
7233;SDS011;3658;47.992;10.158;2023-04-07T00:55:13;1.50;;;1.10;;
7233;SDS011;3658;47.992;10.158;2023-04-07T00:57:40;1.20;;;1.10;;
7233;SDS011;3658;47.992;10.158;2023-04-07T01:00:08;0.90;;;0.90;;
7233;SDS011;3658;47.992;10.158;2023-04-07T01:02:36;1.23;;;1.13;;
7233;SDS011;3658;47.992;10.158;2023-04-07T01:05:09;1.13;;;1.13;;
7233;SDS011;3658;47.992;10.158;2023-04-07T01:07:43;1.20;;;1.10;;
7233;SDS011;3658;47.992;10.158;2023-04-07T01:10:20;1.20;;;1.10;;
7233;SDS011;3658;47.992;10.158;2023-04-07T01:12:53;1.00;;;0.97;;
7233;SDS011;3658;47.992;10.158;2023-04-07T01:15:26;1.10;;;1.00;;
7233;SDS011;3658;47.992;10.158;2023-04-07T01:17:57;1.40;;;1.20;;
7233;SDS011;3658;47.992;10.158;2023-04-07T01:20:31;1.13;;;1.03;;
7233;SDS011;3658;47.992;10.158;2023-04-07T01:23:01;1.27;;;1.17;;
7233;SDS011;3658;47.992;10.158;2023-04-07T01:25:38;1.00;;;1.00;;
7233;SDS011;3658;47.992;10.158;2023-04-07T01:28:33;1.20;;;1.10;;
7233;SDS011;3658;47.992;10.158;2023-04-07T01:31:16;1.37;;;1.20;;
7233;SDS011;3658;47.992;10.158;2023-04-07T01:33:44;1.03;;;0.97;;
7233;SDS011;3658;47.992;10.158;2023-04-07T01:36:13;1.03;;;1.03;;
7233;SDS011;3658;47.992;10.158;2023-04-07T01:38:41;1.30;;;1.20;;
7233;SDS011;3658;47.992;10.158;2023-04-07T01:41:10;1.13;;;1.10;;
7233;SDS011;3658;47.992;10.158;2023-04-07T01:43:40;1.20;;;1.10;;
7233;SDS011;3658;47.992;10.158;2023-04-07T01:46:08;1.27;;;1.17;;
7233;SDS011;3658;47.992;10.158;2023-04-07T01:48:36;1.43;;;1.13;;
7233;SDS011;3658;47.992;10.158;2023-04-07T01:51:05;1.53;;;1.10;;
7233;SDS011;3658;47.992;10.158;2023-04-07T01:53:32;1.20;;;1.10;;
7233;SDS011;3658;47.992;10.158;2023-04-07T01:56:01;1.20;;;1.10;;
7233;SDS011;3658;47.992;10.158;2023-04-07T01:58:29;1.40;;;1.23;;
7233;SDS011;3658;47.992;10.158;2023-04-07T02:00:55;1.30;;;1.13;;
7233;SDS011;3658;47.992;10.158;2023-04-07T02:03:23;1.40;;;1.27;;
7233;SDS011;3658;47.992;10.158;2023-04-07T02:05:57;1.00;;;1.00;;
7233;SDS011;3658;47.992;10.158;2023-04-07T02:08:29;1.20;;;1.10;;
7233;SDS011;3658;47.992;10.158;2023-04-07T02:10:58;1.10;;;1.00;;
7233;SDS011;3658;47.992;10.158;2023-04-07T02:13:28;1.20;;;1.10;;
7233;SDS011;3658;47.992;10.158;2023-04-07T02:15:56;1.20;;;1.10;;
7233;SDS011;3658;47.992;10.158;2023-04-07T02:18:25;1.30;;;1.20;;
7233;SDS011;3658;47.992;10.158;2023-04-07T02:20:57;1.10;;;1.00;;
7233;SDS011;3658;47.992;10.158;2023-04-07T02:23:26;1.30;;;1.20;;
7233;SDS011;3658;47.992;10.158;2023-04-07T02:25:54;1.27;;;1.17;;
7233;SDS011;3658;47.992;10.158;2023-04-07T02:28:22;1.43;;;1.20;;
7233;SDS011;3658;47.992;10.158;2023-04-07T02:30:49;1.73;;;1.63;;
7233;SDS011;3658;47.992;10.158;2023-04-07T02:33:16;1.37;;;1.10;;
7233;SDS011;3658;47.992;10.158;2023-04-07T02:35:43;1.73;;;1.20;;
7233;SDS011;3658;47.992;10.158;2023-04-07T02:38:11;1.20;;;1.10;;
7233;SDS011;3658;47.992;10.158;2023-04-07T02:40:38;1.20;;;1.10;;
7233;SDS011;3658;47.992;10.158;2023-04-07T02:43:05;1.30;;;1.20;;
7233;SDS011;3658;47.992;10.158;2023-04-07T02:45:32;1.13;;;1.03;;
7233;SDS011;3658;47.992;10.158;2023-04-07T02:47:59;1.10;;;1.00;;
7233;SDS011;3658;47.992;10.158;2023-04-07T02:50:26;1.40;;;1.30;;
7233;SDS011;3658;47.992;10.158;2023-04-07T02:52:53;1.40;;;1.17;;
7233;SDS011;3658;47.992;10.158;2023-04-07T02:55:22;1.43;;;1.27;;
7233;SDS011;3658;47.992;10.158;2023-04-07T02:57:49;1.50;;;1.40;;
7233;SDS011;3658;47.992;10.158;2023-04-07T03:00:15;1.50;;;1.30;;
7233;SDS011;3658;47.992;10.158;2023-04-07T03:02:43;1.27;;;1.17;;
7233;SDS011;3658;47.992;10.158;2023-04-07T03:05:09;1.10;;;1.00;;
7233;SDS011;3658;47.992;10.158;2023-04-07T03:07:37;1.30;;;1.20;;
7233;SDS011;3658;47.992;10.158;2023-04-07T03:10:04;1.27;;;1.17;;
7233;SDS011;3658;47.992;10.158;2023-04-07T03:12:33;1.67;;;1.10;;
7233;SDS011;3658;47.992;10.158;2023-04-07T03:15:00;1.23;;;1.13;;
7233;SDS011;3658;47.992;10.158;2023-04-07T03:17:26;1.83;;;1.20;;
7233;SDS011;3658;47.992;10.158;2023-04-07T03:19:53;1.40;;;1.30;;
7233;SDS011;3658;47.992;10.158;2023-04-07T03:22:21;1.60;;;1.10;;
7233;SDS011;3658;47.992;10.158;2023-04-07T03:24:48;1.30;;;1.17;;
7233;SDS011;3658;47.992;10.158;2023-04-07T03:27:14;1.23;;;1.13;;
7233;SDS011;3658;47.992;10.158;2023-04-07T03:29:43;1.33;;;1.23;;
7233;SDS011;3658;47.992;10.158;2023-04-07T03:32:11;1.20;;;1.10;;
7233;SDS011;3658;47.992;10.158;2023-04-07T03:34:37;1.30;;;1.20;;
7233;SDS011;3658;47.992;10.158;2023-04-07T03:37:04;1.10;;;1.10;;
7233;SDS011;3658;47.992;10.158;2023-04-07T03:39:31;3.43;;;1.10;;
7233;SDS011;3658;47.992;10.158;2023-04-07T03:42:01;1.63;;;1.20;;
7233;SDS011;3658;47.992;10.158;2023-04-07T03:44:28;1.30;;;1.20;;
7233;SDS011;3658;47.992;10.158;2023-04-07T03:46:57;1.20;;;1.10;;
7233;SDS011;3658;47.992;10.158;2023-04-07T03:49:24;1.00;;;0.97;;
7233;SDS011;3658;47.992;10.158;2023-04-07T03:51:51;1.20;;;1.10;;
7233;SDS011;3658;47.992;10.158;2023-04-07T03:54:18;1.17;;;1.07;;
7233;SDS011;3658;47.992;10.158;2023-04-07T03:56:45;1.30;;;1.20;;
7233;SDS011;3658;47.992;10.158;2023-04-07T03:59:12;1.30;;;1.20;;
7233;SDS011;3658;47.992;10.158;2023-04-07T04:01:39;1.10;;;1.10;;
7233;SDS011;3658;47.992;10.158;2023-04-07T04:04:08;1.30;;;1.20;;
7233;SDS011;3658;47.992;10.158;2023-04-07T04:06:35;1.20;;;1.10;;
7233;SDS011;3658;47.992;10.158;2023-04-07T04:09:02;0.93;;;0.90;;
7233;SDS011;3658;47.992;10.158;2023-04-07T04:11:30;1.23;;;1.13;;
7233;SDS011;3658;47.992;10.158;2023-04-07T04:13:57;1.30;;;1.20;;
7233;SDS011;3658;47.992;10.158;2023-04-07T04:16:23;1.30;;;1.10;;
7233;SDS011;3658;47.992;10.158;2023-04-07T04:18:50;1.33;;;1.23;;
7233;SDS011;3658;47.992;10.158;2023-04-07T04:21:19;1.77;;;1.20;;
7233;SDS011;3658;47.992;10.158;2023-04-07T04:23:46;1.27;;;1.17;;
7233;SDS011;3658;47.992;10.158;2023-04-07T04:26:12;1.20;;;1.10;;
7233;SDS011;3658;47.992;10.158;2023-04-07T04:28:40;1.60;;;1.37;;
7233;SDS011;3658;47.992;10.158;2023-04-07T04:31:07;1.20;;;1.17;;
7233;SDS011;3658;47.992;10.158;2023-04-07T04:33:33;1.20;;;1.10;;
7233;SDS011;3658;47.992;10.158;2023-04-07T04:36:03;1.03;;;1.03;;
7233;SDS011;3658;47.992;10.158;2023-04-07T04:38:32;1.10;;;1.00;;
7233;SDS011;3658;47.992;10.158;2023-04-07T04:40:59;1.50;;;1.30;;
7233;SDS011;3658;47.992;10.158;2023-04-07T04:43:26;1.77;;;1.10;;
7233;SDS011;3658;47.992;10.158;2023-04-07T04:45:53;1.30;;;1.10;;
7233;SDS011;3658;47.992;10.158;2023-04-07T04:48:20;1.40;;;1.30;;
7233;SDS011;3658;47.992;10.158;2023-04-07T04:50:47;1.30;;;1.20;;
7233;SDS011;3658;47.992;10.158;2023-04-07T04:53:14;1.30;;;1.20;;
7233;SDS011;3658;47.992;10.158;2023-04-07T04:55:42;1.30;;;1.20;;
7233;SDS011;3658;47.992;10.158;2023-04-07T04:58:11;1.30;;;1.20;;
7233;SDS011;3658;47.992;10.158;2023-04-07T05:00:38;1.23;;;1.13;;
7233;SDS011;3658;47.992;10.158;2023-04-07T05:03:05;1.23;;;1.13;;
7233;SDS011;3658;47.992;10.158;2023-04-07T05:05:32;1.33;;;1.23;;
7233;SDS011;3658;47.992;10.158;2023-04-07T05:07:59;1.30;;;1.20;;
7233;SDS011;3658;47.992;10.158;2023-04-07T05:10:26;1.20;;;1.10;;
7233;SDS011;3658;47.992;10.158;2023-04-07T05:12:54;1.70;;;1.00;;
7233;SDS011;3658;47.992;10.158;2023-04-07T05:15:21;1.13;;;1.03;;
7233;SDS011;3658;47.992;10.158;2023-04-07T05:17:48;1.20;;;1.10;;
7233;SDS011;3658;47.992;10.158;2023-04-07T05:20:15;1.40;;;1.30;;
7233;SDS011;3658;47.992;10.158;2023-04-07T05:22:42;1.67;;;1.50;;
7233;SDS011;3658;47.992;10.158;2023-04-07T05:25:09;1.50;;;1.20;;
7233;SDS011;3658;47.992;10.158;2023-04-07T05:27:36;1.53;;;1.30;;
7233;SDS011;3658;47.992;10.158;2023-04-07T05:30:05;1.50;;;1.40;;
7233;SDS011;3658;47.992;10.158;2023-04-07T05:32:33;1.30;;;1.17;;
7233;SDS011;3658;47.992;10.158;2023-04-07T05:35:00;1.37;;;1.20;;
7233;SDS011;3658;47.992;10.158;2023-04-07T05:37:27;1.30;;;1.20;;
7233;SDS011;3658;47.992;10.158;2023-04-07T05:39:54;3.70;;;1.20;;
7233;SDS011;3658;47.992;10.158;2023-04-07T05:42:21;5.73;;;1.20;;
7233;SDS011;3658;47.992;10.158;2023-04-07T05:44:48;1.43;;;1.07;;
7233;SDS011;3658;47.992;10.158;2023-04-07T05:47:17;2.33;;;1.10;;
7233;SDS011;3658;47.992;10.158;2023-04-07T05:49:44;2.60;;;1.30;;
7233;SDS011;3658;47.992;10.158;2023-04-07T05:52:11;2.60;;;1.40;;
7233;SDS011;3658;47.992;10.158;2023-04-07T05:54:38;3.50;;;1.10;;
7233;SDS011;3658;47.992;10.158;2023-04-07T05:57:05;1.03;;;1.00;;
7233;SDS011;3658;47.992;10.158;2023-04-07T05:59:33;1.63;;;1.20;;
7233;SDS011;3658;47.992;10.158;2023-04-07T06:02:00;1.20;;;1.10;;
7233;SDS011;3658;47.992;10.158;2023-04-07T06:04:29;1.53;;;1.13;;
7233;SDS011;3658;47.992;10.158;2023-04-07T06:06:56;4.10;;;1.20;;
7233;SDS011;3658;47.992;10.158;2023-04-07T06:09:23;9.77;;;1.80;;
7233;SDS011;3658;47.992;10.158;2023-04-07T06:11:50;2.30;;;1.20;;
7233;SDS011;3658;47.992;10.158;2023-04-07T06:14:17;10.20;;;1.53;;
7233;SDS011;3658;47.992;10.158;2023-04-07T06:16:44;11.40;;;2.07;;
7233;SDS011;3658;47.992;10.158;2023-04-07T06:19:11;7.47;;;1.60;;
7233;SDS011;3658;47.992;10.158;2023-04-07T06:21:40;5.63;;;2.10;;
7233;SDS011;3658;47.992;10.158;2023-04-07T06:24:07;9.07;;;1.87;;
7233;SDS011;3658;47.992;10.158;2023-04-07T06:26:34;13.87;;;1.83;;
7233;SDS011;3658;47.992;10.158;2023-04-07T06:29:01;9.70;;;1.80;;
7233;SDS011;3658;47.992;10.158;2023-04-07T06:31:28;6.50;;;2.10;;
7233;SDS011;3658;47.992;10.158;2023-04-07T06:33:55;4.93;;;1.53;;
7233;SDS011;3658;47.992;10.158;2023-04-07T06:36:22;6.10;;;1.73;;
7233;SDS011;3658;47.992;10.158;2023-04-07T06:38:51;4.23;;;1.40;;
7233;SDS011;3658;47.992;10.158;2023-04-07T06:41:18;7.03;;;1.80;;
7233;SDS011;3658;47.992;10.158;2023-04-07T06:43:46;5.90;;;1.70;;
7233;SDS011;3658;47.992;10.158;2023-04-07T06:46:15;2.93;;;1.40;;
7233;SDS011;3658;47.992;10.158;2023-04-07T06:48:42;6.37;;;1.67;;
7233;SDS011;3658;47.992;10.158;2023-04-07T06:51:09;2.40;;;1.60;;
7233;SDS011;3658;47.992;10.158;2023-04-07T06:53:36;5.17;;;1.70;;
7233;SDS011;3658;47.992;10.158;2023-04-07T06:56:05;8.07;;;1.50;;
7233;SDS011;3658;47.992;10.158;2023-04-07T06:58:33;2.37;;;1.50;;
7233;SDS011;3658;47.992;10.158;2023-04-07T07:01:01;2.80;;;1.50;;
7233;SDS011;3658;47.992;10.158;2023-04-07T07:03:28;1.90;;;1.40;;
7233;SDS011;3658;47.992;10.158;2023-04-07T07:05:56;2.93;;;1.73;;
7233;SDS011;3658;47.992;10.158;2023-04-07T07:08:23;4.87;;;2.20;;
7233;SDS011;3658;47.992;10.158;2023-04-07T07:10:50;4.97;;;1.73;;
7233;SDS011;3658;47.992;10.158;2023-04-07T07:13:20;6.63;;;1.80;;
7233;SDS011;3658;47.992;10.158;2023-04-07T07:15:48;2.37;;;1.33;;
7233;SDS011;3658;47.992;10.158;2023-04-07T07:18:15;2.30;;;1.30;;
7233;SDS011;3658;47.992;10.158;2023-04-07T07:20:42;2.33;;;1.50;;
7233;SDS011;3658;47.992;10.158;2023-04-07T07:23:09;1.90;;;1.40;;
7233;SDS011;3658;47.992;10.158;2023-04-07T07:25:36;3.10;;;1.30;;
7233;SDS011;3658;47.992;10.158;2023-04-07T07:28:03;2.80;;;1.43;;
7233;SDS011;3658;47.992;10.158;2023-04-07T07:30:31;2.07;;;1.40;;
7233;SDS011;3658;47.992;10.158;2023-04-07T07:32:58;2.87;;;1.50;;
7233;SDS011;3658;47.992;10.158;2023-04-07T07:35:25;1.97;;;1.60;;
7233;SDS011;3658;47.992;10.158;2023-04-07T07:37:52;4.10;;;1.37;;
7233;SDS011;3658;47.992;10.158;2023-04-07T07:40:19;1.47;;;1.37;;
7233;SDS011;3658;47.992;10.158;2023-04-07T07:42:46;3.10;;;1.40;;
7233;SDS011;3658;47.992;10.158;2023-04-07T07:45:13;2.47;;;1.30;;
7233;SDS011;3658;47.992;10.158;2023-04-07T07:47:43;2.53;;;1.20;;
7233;SDS011;3658;47.992;10.158;2023-04-07T07:50:10;1.70;;;1.47;;
7233;SDS011;3658;47.992;10.158;2023-04-07T07:52:37;1.83;;;1.50;;
7233;SDS011;3658;47.992;10.158;2023-04-07T07:55:04;1.83;;;1.40;;
7233;SDS011;3658;47.992;10.158;2023-04-07T07:57:31;1.63;;;1.30;;
7233;SDS011;3658;47.992;10.158;2023-04-07T07:59:58;1.20;;;1.10;;
7233;SDS011;3658;47.992;10.158;2023-04-07T08:02:25;2.33;;;1.60;;
7233;SDS011;3658;47.992;10.158;2023-04-07T08:04:56;1.43;;;1.20;;
7233;SDS011;3658;47.992;10.158;2023-04-07T08:07:24;2.73;;;1.30;;
7233;SDS011;3658;47.992;10.158;2023-04-07T08:09:52;1.50;;;1.40;;
7233;SDS011;3658;47.992;10.158;2023-04-07T08:12:19;2.57;;;1.30;;
7233;SDS011;3658;47.992;10.158;2023-04-07T08:14:46;1.40;;;1.30;;
7233;SDS011;3658;47.992;10.158;2023-04-07T08:17:14;1.27;;;1.17;;
7233;SDS011;3658;47.992;10.158;2023-04-07T08:19:41;1.43;;;1.20;;
7233;SDS011;3658;47.992;10.158;2023-04-07T08:22:09;1.33;;;1.20;;
7233;SDS011;3658;47.992;10.158;2023-04-07T08:24:36;1.73;;;1.40;;
7233;SDS011;3658;47.992;10.158;2023-04-07T08:27:03;1.30;;;1.20;;
7233;SDS011;3658;47.992;10.158;2023-04-07T08:29:30;1.37;;;1.27;;
7233;SDS011;3658;47.992;10.158;2023-04-07T08:31:57;1.33;;;1.20;;
7233;SDS011;3658;47.992;10.158;2023-04-07T08:34:24;1.30;;;1.20;;
7233;SDS011;3658;47.992;10.158;2023-04-07T08:36:51;1.37;;;1.27;;
7233;SDS011;3658;47.992;10.158;2023-04-07T08:39:19;1.30;;;1.20;;
7233;SDS011;3658;47.992;10.158;2023-04-07T08:41:46;1.43;;;1.20;;
7233;SDS011;3658;47.992;10.158;2023-04-07T08:44:15;2.43;;;1.30;;
7233;SDS011;3658;47.992;10.158;2023-04-07T08:46:43;1.30;;;1.20;;
7233;SDS011;3658;47.992;10.158;2023-04-07T08:49:11;1.30;;;1.20;;
7233;SDS011;3658;47.992;10.158;2023-04-07T08:51:42;1.27;;;1.17;;
7233;SDS011;3658;47.992;10.158;2023-04-07T08:54:12;1.20;;;1.10;;
7233;SDS011;3658;47.992;10.158;2023-04-07T08:56:41;1.57;;;1.30;;
7233;SDS011;3658;47.992;10.158;2023-04-07T08:59:09;1.40;;;1.30;;
7233;SDS011;3658;47.992;10.158;2023-04-07T09:01:37;1.30;;;1.20;;
7233;SDS011;3658;47.992;10.158;2023-04-07T09:04:05;1.33;;;1.23;;
7233;SDS011;3658;47.992;10.158;2023-04-07T09:06:34;1.93;;;1.30;;
7233;SDS011;3658;47.992;10.158;2023-04-07T09:09:01;1.10;;;1.00;;
7233;SDS011;3658;47.992;10.158;2023-04-07T09:11:34;1.20;;;1.10;;
7233;SDS011;3658;47.992;10.158;2023-04-07T09:14:05;1.20;;;1.10;;
7233;SDS011;3658;47.992;10.158;2023-04-07T09:16:32;1.30;;;1.20;;
7233;SDS011;3658;47.992;10.158;2023-04-07T09:19:00;1.60;;;1.40;;
7233;SDS011;3658;47.992;10.158;2023-04-07T09:21:27;1.37;;;1.20;;
7233;SDS011;3658;47.992;10.158;2023-04-07T09:24:19;1.63;;;1.33;;
7233;SDS011;3658;47.992;10.158;2023-04-07T09:26:46;1.63;;;1.20;;
7233;SDS011;3658;47.992;10.158;2023-04-07T09:29:17;1.30;;;1.20;;
7233;SDS011;3658;47.992;10.158;2023-04-07T09:31:45;1.60;;;1.50;;
7233;SDS011;3658;47.992;10.158;2023-04-07T09:34:24;1.00;;;1.00;;
7233;SDS011;3658;47.992;10.158;2023-04-07T09:36:52;1.67;;;1.30;;
7233;SDS011;3658;47.992;10.158;2023-04-07T09:39:20;1.23;;;1.13;;
7233;SDS011;3658;47.992;10.158;2023-04-07T09:41:47;1.40;;;1.30;;
7233;SDS011;3658;47.992;10.158;2023-04-07T09:44:16;1.37;;;1.27;;
7233;SDS011;3658;47.992;10.158;2023-04-07T09:46:47;1.40;;;1.30;;
7233;SDS011;3658;47.992;10.158;2023-04-07T09:49:14;1.87;;;1.27;;
7233;SDS011;3658;47.992;10.158;2023-04-07T09:51:51;1.90;;;1.47;;
7233;SDS011;3658;47.992;10.158;2023-04-07T09:54:24;1.60;;;1.50;;
7233;SDS011;3658;47.992;10.158;2023-04-07T09:56:58;1.77;;;1.40;;
7233;SDS011;3658;47.992;10.158;2023-04-07T09:59:29;1.93;;;1.40;;
7233;SDS011;3658;47.992;10.158;2023-04-07T10:01:57;1.47;;;1.37;;
7233;SDS011;3658;47.992;10.158;2023-04-07T10:04:25;1.60;;;1.50;;
7233;SDS011;3658;47.992;10.158;2023-04-07T10:06:53;1.40;;;1.30;;
7233;SDS011;3658;47.992;10.158;2023-04-07T10:09:20;1.57;;;1.47;;
7233;SDS011;3658;47.992;10.158;2023-04-07T10:11:49;1.50;;;1.40;;
7233;SDS011;3658;47.992;10.158;2023-04-07T10:14:16;1.27;;;1.17;;
7233;SDS011;3658;47.992;10.158;2023-04-07T10:16:46;1.80;;;1.57;;
7233;SDS011;3658;47.992;10.158;2023-04-07T10:19:15;1.47;;;1.30;;
7233;SDS011;3658;47.992;10.158;2023-04-07T10:21:44;1.70;;;1.60;;
7233;SDS011;3658;47.992;10.158;2023-04-07T10:24:16;1.93;;;1.70;;
7233;SDS011;3658;47.992;10.158;2023-04-07T10:26:54;2.13;;;1.90;;
7233;SDS011;3658;47.992;10.158;2023-04-07T10:29:25;2.43;;;1.90;;
7233;SDS011;3658;47.992;10.158;2023-04-07T10:31:59;2.93;;;2.10;;
7233;SDS011;3658;47.992;10.158;2023-04-07T10:37:23;2.17;;;1.97;;
7233;SDS011;3658;47.992;10.158;2023-04-07T10:42:52;2.20;;;2.00;;
7233;SDS011;3658;47.992;10.158;2023-04-07T10:45:50;2.87;;;2.20;;
7233;SDS011;3658;47.992;10.158;2023-04-07T10:48:23;2.93;;;2.30;;
7233;SDS011;3658;47.992;10.158;2023-04-07T10:51:12;2.87;;;2.10;;
7233;SDS011;3658;47.992;10.158;2023-04-07T10:59:41;2.10;;;1.90;;
7233;SDS011;3658;47.992;10.158;2023-04-07T11:02:31;2.60;;;2.13;;
7233;SDS011;3658;47.992;10.158;2023-04-07T11:05:01;2.83;;;2.10;;
7233;SDS011;3658;47.992;10.158;2023-04-07T11:10:15;2.90;;;2.10;;
7233;SDS011;3658;47.992;10.158;2023-04-07T11:12:43;2.27;;;2.07;;
7233;SDS011;3658;47.992;10.158;2023-04-07T11:15:23;2.33;;;2.13;;
7233;SDS011;3658;47.992;10.158;2023-04-07T11:18:11;2.83;;;2.40;;
7233;SDS011;3658;47.992;10.158;2023-04-07T11:20:41;2.73;;;2.13;;
7233;SDS011;3658;47.992;10.158;2023-04-07T11:23:12;3.60;;;2.00;;
7233;SDS011;3658;47.992;10.158;2023-04-07T11:25:41;1.97;;;1.77;;
7233;SDS011;3658;47.992;10.158;2023-04-07T11:28:10;2.23;;;1.90;;
7233;SDS011;3658;47.992;10.158;2023-04-07T11:30:38;2.13;;;1.93;;
7233;SDS011;3658;47.992;10.158;2023-04-07T11:33:15;2.30;;;2.10;;
7233;SDS011;3658;47.992;10.158;2023-04-07T11:35:52;2.03;;;1.83;;
7233;SDS011;3658;47.992;10.158;2023-04-07T11:38:21;1.97;;;1.83;;
7233;SDS011;3658;47.992;10.158;2023-04-07T11:40:51;2.10;;;1.80;;
7233;SDS011;3658;47.992;10.158;2023-04-07T11:43:19;2.77;;;1.90;;
7233;SDS011;3658;47.992;10.158;2023-04-07T11:48:32;1.70;;;1.60;;
7233;SDS011;3658;47.992;10.158;2023-04-07T11:51:00;3.33;;;2.20;;
7233;SDS011;3658;47.992;10.158;2023-04-07T11:53:28;2.53;;;1.83;;
7233;SDS011;3658;47.992;10.158;2023-04-07T11:55:59;2.03;;;1.80;;
7233;SDS011;3658;47.992;10.158;2023-04-07T11:58:27;1.87;;;1.63;;
7233;SDS011;3658;47.992;10.158;2023-04-07T12:00:54;1.90;;;1.60;;
7233;SDS011;3658;47.992;10.158;2023-04-07T12:03:22;1.73;;;1.63;;
7233;SDS011;3658;47.992;10.158;2023-04-07T12:05:50;1.60;;;1.50;;
7233;SDS011;3658;47.992;10.158;2023-04-07T12:08:18;1.97;;;1.70;;
7233;SDS011;3658;47.992;10.158;2023-04-07T12:10:45;1.80;;;1.70;;
7233;SDS011;3658;47.992;10.158;2023-04-07T12:13:12;2.23;;;1.73;;
7233;SDS011;3658;47.992;10.158;2023-04-07T12:15:41;2.00;;;1.47;;
7233;SDS011;3658;47.992;10.158;2023-04-07T12:18:08;1.57;;;1.47;;
7233;SDS011;3658;47.992;10.158;2023-04-07T12:20:41;1.60;;;1.50;;
7233;SDS011;3658;47.992;10.158;2023-04-07T12:23:10;1.63;;;1.53;;
7233;SDS011;3658;47.992;10.158;2023-04-07T12:25:37;2.47;;;1.60;;
7233;SDS011;3658;47.992;10.158;2023-04-07T12:28:04;1.60;;;1.50;;
7233;SDS011;3658;47.992;10.158;2023-04-07T12:30:31;1.73;;;1.60;;
7233;SDS011;3658;47.992;10.158;2023-04-07T12:32:57;1.57;;;1.47;;
7233;SDS011;3658;47.992;10.158;2023-04-07T12:35:24;1.63;;;1.53;;
7233;SDS011;3658;47.992;10.158;2023-04-07T12:37:52;1.63;;;1.53;;
7233;SDS011;3658;47.992;10.158;2023-04-07T12:40:22;1.63;;;1.50;;
7233;SDS011;3658;47.992;10.158;2023-04-07T12:42:50;1.53;;;1.43;;
7233;SDS011;3658;47.992;10.158;2023-04-07T12:45:17;1.50;;;1.40;;
7233;SDS011;3658;47.992;10.158;2023-04-07T12:47:44;1.70;;;1.30;;
7233;SDS011;3658;47.992;10.158;2023-04-07T12:50:11;2.27;;;1.77;;
7233;SDS011;3658;47.992;10.158;2023-04-07T12:52:38;1.50;;;1.40;;
7233;SDS011;3658;47.992;10.158;2023-04-07T12:55:05;1.60;;;1.50;;
7233;SDS011;3658;47.992;10.158;2023-04-07T12:57:33;1.60;;;1.50;;
7233;SDS011;3658;47.992;10.158;2023-04-07T13:00:01;1.50;;;1.40;;
7233;SDS011;3658;47.992;10.158;2023-04-07T13:02:29;1.90;;;1.70;;
7233;SDS011;3658;47.992;10.158;2023-04-07T13:04:56;2.30;;;1.50;;
7233;SDS011;3658;47.992;10.158;2023-04-07T13:07:23;1.70;;;1.60;;
7233;SDS011;3658;47.992;10.158;2023-04-07T13:09:51;1.40;;;1.30;;
7233;SDS011;3658;47.992;10.158;2023-04-07T13:12:18;2.03;;;1.57;;
7233;SDS011;3658;47.992;10.158;2023-04-07T13:14:47;2.03;;;1.40;;
7233;SDS011;3658;47.992;10.158;2023-04-07T13:17:14;1.50;;;1.40;;
7233;SDS011;3658;47.992;10.158;2023-04-07T13:19:42;1.57;;;1.23;;
7233;SDS011;3658;47.992;10.158;2023-04-07T13:22:11;2.47;;;1.57;;
7233;SDS011;3658;47.992;10.158;2023-04-07T13:24:38;1.83;;;1.50;;
7233;SDS011;3658;47.992;10.158;2023-04-07T13:27:05;2.33;;;1.60;;
7233;SDS011;3658;47.992;10.158;2023-04-07T13:29:32;1.67;;;1.40;;
7233;SDS011;3658;47.992;10.158;2023-04-07T13:32:07;1.40;;;1.30;;
7233;SDS011;3658;47.992;10.158;2023-04-07T13:34:37;1.50;;;1.40;;
7233;SDS011;3658;47.992;10.158;2023-04-07T13:37:04;1.53;;;1.43;;
7233;SDS011;3658;47.992;10.158;2023-04-07T13:39:31;1.37;;;1.27;;
7233;SDS011;3658;47.992;10.158;2023-04-07T13:41:58;1.57;;;1.30;;
7233;SDS011;3658;47.992;10.158;2023-04-07T13:44:26;1.50;;;1.40;;
7233;SDS011;3658;47.992;10.158;2023-04-07T13:46:53;1.57;;;1.47;;
7233;SDS011;3658;47.992;10.158;2023-04-07T13:49:23;1.80;;;1.40;;
7233;SDS011;3658;47.992;10.158;2023-04-07T13:51:50;1.37;;;1.10;;
7233;SDS011;3658;47.992;10.158;2023-04-07T13:54:16;1.67;;;1.30;;
7233;SDS011;3658;47.992;10.158;2023-04-07T13:56:43;1.23;;;1.13;;
7233;SDS011;3658;47.992;10.158;2023-04-07T13:59:12;1.90;;;1.43;;
7233;SDS011;3658;47.992;10.158;2023-04-07T14:01:39;2.33;;;1.40;;
7233;SDS011;3658;47.992;10.158;2023-04-07T14:04:06;1.70;;;1.53;;
7233;SDS011;3658;47.992;10.158;2023-04-07T14:06:34;2.90;;;1.97;;
7233;SDS011;3658;47.992;10.158;2023-04-07T14:09:02;1.77;;;1.60;;
7233;SDS011;3658;47.992;10.158;2023-04-07T14:11:30;1.70;;;1.60;;
7233;SDS011;3658;47.992;10.158;2023-04-07T14:13:58;2.00;;;1.73;;
7233;SDS011;3658;47.992;10.158;2023-04-07T14:16:26;2.43;;;1.50;;
7233;SDS011;3658;47.992;10.158;2023-04-07T14:18:53;1.60;;;1.50;;
7233;SDS011;3658;47.992;10.158;2023-04-07T14:21:21;1.90;;;1.50;;
7233;SDS011;3658;47.992;10.158;2023-04-07T14:23:50;1.90;;;1.60;;
7233;SDS011;3658;47.992;10.158;2023-04-07T14:26:17;1.97;;;1.60;;
7233;SDS011;3658;47.992;10.158;2023-04-07T14:28:43;2.27;;;1.80;;
7233;SDS011;3658;47.992;10.158;2023-04-07T14:31:11;1.37;;;1.23;;
7233;SDS011;3658;47.992;10.158;2023-04-07T14:33:39;1.43;;;1.33;;
7233;SDS011;3658;47.992;10.158;2023-04-07T14:36:07;3.20;;;1.63;;
7233;SDS011;3658;47.992;10.158;2023-04-07T14:38:34;1.50;;;1.40;;
7233;SDS011;3658;47.992;10.158;2023-04-07T14:41:02;1.50;;;1.40;;
7233;SDS011;3658;47.992;10.158;2023-04-07T14:43:29;1.60;;;1.20;;
7233;SDS011;3658;47.992;10.158;2023-04-07T14:45:56;2.83;;;1.60;;
7233;SDS011;3658;47.992;10.158;2023-04-07T14:48:24;3.40;;;1.80;;
7233;SDS011;3658;47.992;10.158;2023-04-07T14:50:51;1.90;;;1.63;;
7233;SDS011;3658;47.992;10.158;2023-04-07T14:53:18;2.07;;;1.50;;
7233;SDS011;3658;47.992;10.158;2023-04-07T14:55:45;3.13;;;1.50;;
7233;SDS011;3658;47.992;10.158;2023-04-07T14:58:13;1.60;;;1.23;;
7233;SDS011;3658;47.992;10.158;2023-04-07T15:00:40;2.20;;;1.40;;
7233;SDS011;3658;47.992;10.158;2023-04-07T15:03:07;1.77;;;1.50;;
7233;SDS011;3658;47.992;10.158;2023-04-07T15:05:34;1.70;;;1.40;;
7233;SDS011;3658;47.992;10.158;2023-04-07T15:08:01;1.30;;;1.20;;
7233;SDS011;3658;47.992;10.158;2023-04-07T15:10:28;1.70;;;1.30;;
7233;SDS011;3658;47.992;10.158;2023-04-07T15:12:57;1.67;;;1.30;;
7233;SDS011;3658;47.992;10.158;2023-04-07T15:15:25;2.03;;;1.50;;
7233;SDS011;3658;47.992;10.158;2023-04-07T15:17:52;1.60;;;1.50;;
7233;SDS011;3658;47.992;10.158;2023-04-07T15:20:19;1.40;;;1.30;;
7233;SDS011;3658;47.992;10.158;2023-04-07T15:22:46;1.73;;;1.40;;
7233;SDS011;3658;47.992;10.158;2023-04-07T15:25:13;1.20;;;1.10;;